KAL1234 RKPC-RKSS
Flight info
| Callsign | KAL1234 |
|---|---|
| Flight time | 0h 44m |
| Altitude | 23000 |
| Route | KAMIT Y722 OLMEN |
| Aircraft | A21N/M-VGDW/C |
Departure
| Time | 2026-05-07 08:35 |
|---|---|
| Airport | Jeju International Airport (RKPC) |
Arrival
| Time | 2026-05-07 09:19 |
|---|---|
| Airport | Gimpo International Airport (RKSS) |
| Time | Latitude | Longitude | Altitude | Speed | Heading |
|---|---|---|---|---|---|
| 2026-05-07 08:17 | 33.50709 | 126.49183 | 96 ft | 0 kts | 156° |
| 2026-05-07 08:24 | 33.50721 | 126.49176 | 97 ft | 4 kts | 156° |
| 2026-05-07 08:25 | 33.50746 | 126.49163 | 96 ft | 4 kts | 156° |
| 2026-05-07 08:25 | 33.50766 | 126.49151 | 95 ft | 4 kts | 135° |
| 2026-05-07 08:25 | 33.50775 | 126.49135 | 95 ft | 4 kts | 103° |
| 2026-05-07 08:25 | 33.50771 | 126.49095 | 95 ft | 4 kts | 65° |
| 2026-05-07 08:26 | 33.50760 | 126.49069 | 97 ft | 0 kts | 58° |
| 2026-05-07 08:29 | 33.50763 | 126.49075 | 95 ft | 2 kts | 58° |
| 2026-05-07 08:29 | 33.50771 | 126.49093 | 95 ft | 5 kts | 60° |
| 2026-05-07 08:29 | 33.50795 | 126.49141 | 96 ft | 9 kts | 58° |
| 2026-05-07 08:30 | 33.50834 | 126.49216 | 99 ft | 12 kts | 58° |
| 2026-05-07 08:30 | 33.50886 | 126.49317 | 97 ft | 16 kts | 58° |
| 2026-05-07 08:30 | 33.50976 | 126.49387 | 98 ft | 19 kts | 323° |
| 2026-05-07 08:30 | 33.51033 | 126.49251 | 96 ft | 16 kts | 236° |
| 2026-05-07 08:31 | 33.50991 | 126.49168 | 94 ft | 18 kts | 238° |
| 2026-05-07 08:31 | 33.50919 | 126.49028 | 94 ft | 21 kts | 238° |
| 2026-05-07 08:31 | 33.50807 | 126.48813 | 95 ft | 25 kts | 238° |
| 2026-05-07 08:31 | 33.50745 | 126.48692 | 95 ft | 27 kts | 237° |
| 2026-05-07 08:32 | 33.50645 | 126.48495 | 99 ft | 29 kts | 238° |
| 2026-05-07 08:32 | 33.50533 | 126.48282 | 99 ft | 31 kts | 238° |
| 2026-05-07 08:32 | 33.50416 | 126.48053 | 98 ft | 33 kts | 238° |
| 2026-05-07 08:32 | 33.50323 | 126.47866 | 100 ft | 23 kts | 236° |
| 2026-05-07 08:33 | 33.50230 | 126.47693 | 100 ft | 26 kts | 237° |
| 2026-05-07 08:33 | 33.50128 | 126.47503 | 101 ft | 28 kts | 237° |
| 2026-05-07 08:33 | 33.50018 | 126.47294 | 101 ft | 31 kts | 237° |
| 2026-05-07 08:33 | 33.49920 | 126.47079 | 102 ft | 22 kts | 236° |
| 2026-05-07 08:34 | 33.49912 | 126.46919 | 103 ft | 24 kts | 337° |
| 2026-05-07 08:34 | 33.50028 | 126.46917 | 102 ft | 17 kts | 50° |
| 2026-05-07 08:34 | 33.50053 | 126.46964 | 101 ft | 20 kts | 57° |
| 2026-05-07 08:34 | 33.50379 | 126.47597 | 102 ft | 157 kts | 57° |
| 2026-05-07 08:35 | 33.51043 | 126.48878 | 1327 ft | 198 kts | 57° |
| 2026-05-07 08:35 | 33.51795 | 126.50334 | 2582 ft | 218 kts | 54° |
| 2026-05-07 08:35 | 33.52897 | 126.51731 | 3351 ft | 244 kts | 40° |
| 2026-05-07 08:35 | 33.54213 | 126.53157 | 4219 ft | 266 kts | 40° |
| 2026-05-07 08:36 | 33.55597 | 126.54670 | 5228 ft | 279 kts | 40° |
| 2026-05-07 08:36 | 33.57038 | 126.56273 | 6379 ft | 286 kts | 40° |
| 2026-05-07 08:36 | 33.58507 | 126.57924 | 7504 ft | 292 kts | 41° |
| 2026-05-07 08:36 | 33.60004 | 126.59614 | 8565 ft | 301 kts | 41° |
| 2026-05-07 08:37 | 33.61549 | 126.61368 | 9345 ft | 309 kts | 40° |
| 2026-05-07 08:37 | 33.63124 | 126.63158 | 9845 ft | 315 kts | 40° |
| 2026-05-07 08:37 | 33.64803 | 126.65062 | 10007 ft | 351 kts | 40° |
| 2026-05-07 08:37 | 33.66647 | 126.67157 | 10046 ft | 388 kts | 41° |
| 2026-05-07 08:38 | 33.68652 | 126.69407 | 10036 ft | 396 kts | 38° |
| 2026-05-07 08:38 | 33.70936 | 126.71206 | 10017 ft | 391 kts | 23° |
| 2026-05-07 08:38 | 33.73497 | 126.72161 | 9998 ft | 383 kts | 5° |
| 2026-05-07 08:38 | 33.76139 | 126.72339 | 10013 ft | 379 kts | 356° |
| 2026-05-07 08:39 | 33.78775 | 126.72417 | 10014 ft | 379 kts | 358° |
| 2026-05-07 08:39 | 33.81414 | 126.72576 | 10002 ft | 380 kts | 359° |
| 2026-05-07 08:39 | 33.84056 | 126.72799 | 10001 ft | 381 kts | 0° |
| 2026-05-07 08:39 | 33.86696 | 126.73051 | 9999 ft | 381 kts | 0° |
| 2026-05-07 08:40 | 33.89300 | 126.73312 | 9997 ft | 381 kts | 0° |
| 2026-05-07 08:40 | 33.91939 | 126.73582 | 9991 ft | 381 kts | 1° |
| 2026-05-07 08:40 | 33.94578 | 126.73856 | 9993 ft | 381 kts | 1° |
| 2026-05-07 08:40 | 33.97219 | 126.74134 | 10077 ft | 379 kts | 0° |
| 2026-05-07 08:41 | 33.99866 | 126.74412 | 10966 ft | 384 kts | 0° |
| 2026-05-07 08:41 | 34.02545 | 126.74696 | 11913 ft | 389 kts | 0° |
| 2026-05-07 08:41 | 34.05262 | 126.74985 | 12851 ft | 395 kts | 0° |
| 2026-05-07 08:41 | 34.08017 | 126.75273 | 13748 ft | 400 kts | 0° |
| 2026-05-07 08:42 | 34.10813 | 126.75566 | 14499 ft | 407 kts | 0° |
| 2026-05-07 08:42 | 34.13655 | 126.75864 | 15226 ft | 414 kts | 0° |
| 2026-05-07 08:42 | 34.16546 | 126.76171 | 15976 ft | 420 kts | 0° |
| 2026-05-07 08:42 | 34.19441 | 126.76480 | 16706 ft | 427 kts | 360° |
| 2026-05-07 08:43 | 34.22422 | 126.76797 | 17432 ft | 433 kts | 360° |
| 2026-05-07 08:43 | 34.25448 | 126.77117 | 18138 ft | 440 kts | 360° |
| 2026-05-07 08:43 | 34.28519 | 126.77445 | 18769 ft | 445 kts | 360° |
| 2026-05-07 08:43 | 34.31616 | 126.77777 | 19399 ft | 449 kts | 360° |
| 2026-05-07 08:44 | 34.34744 | 126.78110 | 20059 ft | 453 kts | 359° |
| 2026-05-07 08:44 | 34.37892 | 126.78445 | 20726 ft | 456 kts | 359° |
| 2026-05-07 08:44 | 34.41067 | 126.78782 | 21342 ft | 460 kts | 359° |
| 2026-05-07 08:44 | 34.44271 | 126.79123 | 21972 ft | 464 kts | 359° |
| 2026-05-07 08:45 | 34.47457 | 126.79461 | 22567 ft | 468 kts | 359° |
| 2026-05-07 08:45 | 34.50716 | 126.79806 | 22903 ft | 471 kts | 359° |
| 2026-05-07 08:45 | 34.54014 | 126.80154 | 22956 ft | 484 kts | 359° |
| 2026-05-07 08:45 | 34.57406 | 126.80510 | 22993 ft | 492 kts | 359° |
| 2026-05-07 08:46 | 34.60818 | 126.80879 | 22978 ft | 493 kts | 359° |
| 2026-05-07 08:46 | 34.64218 | 126.81249 | 23172 ft | 492 kts | 359° |
| 2026-05-07 08:46 | 34.67638 | 126.81616 | 23225 ft | 494 kts | 359° |
| 2026-05-07 08:46 | 34.71019 | 126.81978 | 23217 ft | 494 kts | 359° |
| 2026-05-07 08:47 | 34.74440 | 126.82342 | 23110 ft | 493 kts | 359° |
| 2026-05-07 08:47 | 34.77858 | 126.82708 | 22986 ft | 493 kts | 359° |
| 2026-05-07 08:47 | 34.81275 | 126.83077 | 22961 ft | 493 kts | 359° |
| 2026-05-07 08:47 | 34.84696 | 126.83445 | 22975 ft | 494 kts | 359° |
| 2026-05-07 08:48 | 34.88115 | 126.83816 | 22993 ft | 494 kts | 359° |
| 2026-05-07 08:48 | 34.91540 | 126.84191 | 22994 ft | 494 kts | 359° |
| 2026-05-07 08:48 | 34.94961 | 126.84571 | 22995 ft | 494 kts | 359° |
| 2026-05-07 08:48 | 34.98382 | 126.84940 | 22995 ft | 494 kts | 359° |
| 2026-05-07 08:49 | 35.01759 | 126.85304 | 22991 ft | 493 kts | 359° |
| 2026-05-07 08:49 | 35.05180 | 126.85678 | 22996 ft | 493 kts | 359° |
| 2026-05-07 08:49 | 35.08593 | 126.86045 | 22997 ft | 493 kts | 359° |
| 2026-05-07 08:49 | 35.12006 | 126.86415 | 22996 ft | 492 kts | 359° |
| 2026-05-07 08:50 | 35.15420 | 126.86783 | 23014 ft | 493 kts | 359° |
| 2026-05-07 08:50 | 35.18840 | 126.87155 | 23004 ft | 494 kts | 359° |
| 2026-05-07 08:50 | 35.22257 | 126.87529 | 22999 ft | 493 kts | 359° |
| 2026-05-07 08:50 | 35.25676 | 126.87897 | 22996 ft | 493 kts | 359° |
| 2026-05-07 08:51 | 35.29100 | 126.88262 | 22995 ft | 493 kts | 359° |
| 2026-05-07 08:51 | 35.32466 | 126.88627 | 22996 ft | 493 kts | 359° |
| 2026-05-07 08:51 | 35.35884 | 126.89009 | 22997 ft | 491 kts | 358° |
| 2026-05-07 08:51 | 35.39285 | 126.89387 | 22999 ft | 491 kts | 358° |
| 2026-05-07 08:52 | 35.42693 | 126.89763 | 23002 ft | 492 kts | 358° |
| 2026-05-07 08:52 | 35.46107 | 126.90137 | 22990 ft | 492 kts | 358° |
| 2026-05-07 08:52 | 35.49511 | 126.90508 | 22987 ft | 490 kts | 358° |
| 2026-05-07 08:52 | 35.52911 | 126.90878 | 22991 ft | 492 kts | 358° |
| 2026-05-07 08:53 | 35.56323 | 126.91250 | 23009 ft | 493 kts | 358° |
| 2026-05-07 08:53 | 35.59745 | 126.91623 | 23009 ft | 493 kts | 358° |
| 2026-05-07 08:53 | 35.63118 | 126.91988 | 22997 ft | 493 kts | 358° |
| 2026-05-07 08:53 | 35.66536 | 126.92357 | 22991 ft | 493 kts | 358° |
| 2026-05-07 08:54 | 35.69960 | 126.92732 | 22987 ft | 493 kts | 358° |
| 2026-05-07 08:54 | 35.73380 | 126.93114 | 23010 ft | 493 kts | 358° |
| 2026-05-07 08:54 | 35.76801 | 126.93498 | 23003 ft | 494 kts | 358° |
| 2026-05-07 08:54 | 35.80221 | 126.93884 | 22991 ft | 494 kts | 358° |
| 2026-05-07 08:55 | 35.83643 | 126.94265 | 22995 ft | 494 kts | 358° |
| 2026-05-07 08:55 | 35.87065 | 126.94645 | 22988 ft | 494 kts | 358° |
| 2026-05-07 08:55 | 35.90440 | 126.95018 | 22987 ft | 494 kts | 358° |
| 2026-05-07 08:55 | 35.93865 | 126.95395 | 23008 ft | 495 kts | 358° |
| 2026-05-07 08:56 | 35.97297 | 126.95770 | 22999 ft | 496 kts | 358° |
| 2026-05-07 08:56 | 36.00733 | 126.96146 | 22987 ft | 495 kts | 358° |
| 2026-05-07 08:56 | 36.04169 | 126.96524 | 22985 ft | 495 kts | 358° |
| 2026-05-07 08:56 | 36.07603 | 126.96906 | 22980 ft | 495 kts | 358° |
| 2026-05-07 08:57 | 36.11036 | 126.97289 | 22975 ft | 495 kts | 358° |
| 2026-05-07 08:57 | 36.14461 | 126.97672 | 23003 ft | 495 kts | 357° |
| 2026-05-07 08:57 | 36.17890 | 126.98052 | 22975 ft | 495 kts | 357° |
| 2026-05-07 08:57 | 36.21272 | 126.98425 | 22969 ft | 495 kts | 357° |
| 2026-05-07 08:58 | 36.24698 | 126.98805 | 22957 ft | 495 kts | 357° |
| 2026-05-07 08:58 | 36.28139 | 126.99189 | 22965 ft | 495 kts | 359° |
| 2026-05-07 08:58 | 36.31588 | 126.99575 | 23004 ft | 497 kts | 358° |
| 2026-05-07 08:58 | 36.35030 | 126.99959 | 22990 ft | 497 kts | 358° |
| 2026-05-07 08:59 | 36.38469 | 127.00298 | 22963 ft | 493 kts | 355° |
| 2026-05-07 08:59 | 36.41879 | 127.00261 | 22958 ft | 489 kts | 351° |
| 2026-05-07 08:59 | 36.45232 | 127.00141 | 22953 ft | 489 kts | 350° |
| 2026-05-07 08:59 | 36.48631 | 127.00011 | 22944 ft | 491 kts | 351° |
| 2026-05-07 09:00 | 36.52042 | 126.99885 | 22988 ft | 488 kts | 350° |
| 2026-05-07 09:00 | 36.55430 | 126.99761 | 22976 ft | 487 kts | 350° |
| 2026-05-07 09:00 | 36.58814 | 126.99636 | 22962 ft | 487 kts | 350° |
| 2026-05-07 09:00 | 36.62196 | 126.99512 | 22945 ft | 487 kts | 350° |
| 2026-05-07 09:01 | 36.65578 | 126.99390 | 22935 ft | 486 kts | 350° |
| 2026-05-07 09:01 | 36.68964 | 126.99288 | 22942 ft | 488 kts | 352° |
| 2026-05-07 09:01 | 36.72390 | 126.99748 | 22940 ft | 504 kts | 5° |
| 2026-05-07 09:01 | 36.75681 | 127.01241 | 22927 ft | 518 kts | 20° |
| 2026-05-07 09:02 | 36.78712 | 127.03746 | 22925 ft | 530 kts | 35° |
| 2026-05-07 09:02 | 36.81326 | 127.07005 | 22807 ft | 525 kts | 44° |
| 2026-05-07 09:02 | 36.83767 | 127.10320 | 21532 ft | 516 kts | 43° |
| 2026-05-07 09:02 | 36.86303 | 127.13521 | 20224 ft | 518 kts | 40° |
| 2026-05-07 09:03 | 36.88900 | 127.16572 | 19363 ft | 506 kts | 39° |
| 2026-05-07 09:03 | 36.91450 | 127.19514 | 18422 ft | 494 kts | 39° |
| 2026-05-07 09:03 | 36.93958 | 127.22396 | 17331 ft | 485 kts | 39° |
| 2026-05-07 09:03 | 36.96395 | 127.25234 | 16191 ft | 475 kts | 40° |
| 2026-05-07 09:04 | 36.98759 | 127.27981 | 15232 ft | 466 kts | 39° |
| 2026-05-07 09:04 | 37.01120 | 127.30726 | 14281 ft | 461 kts | 39° |
| 2026-05-07 09:04 | 37.03444 | 127.33438 | 13286 ft | 454 kts | 40° |
| 2026-05-07 09:04 | 37.05752 | 127.36110 | 12288 ft | 448 kts | 39° |
| 2026-05-07 09:05 | 37.07995 | 127.38718 | 11658 ft | 431 kts | 40° |
| 2026-05-07 09:05 | 37.10140 | 127.41222 | 11259 ft | 411 kts | 40° |
| 2026-05-07 09:05 | 37.12219 | 127.43549 | 10917 ft | 390 kts | 34° |
| 2026-05-07 09:05 | 37.14503 | 127.45118 | 10642 ft | 362 kts | 14° |
| 2026-05-07 09:06 | 37.16841 | 127.45638 | 10351 ft | 333 kts | 353° |
| 2026-05-07 09:06 | 37.19047 | 127.45293 | 10120 ft | 310 kts | 343° |
| 2026-05-07 09:06 | 37.21126 | 127.44880 | 9920 ft | 294 kts | 340° |
| 2026-05-07 09:06 | 37.22968 | 127.44011 | 9695 ft | 274 kts | 321° |
| 2026-05-07 09:07 | 37.24330 | 127.42498 | 9495 ft | 253 kts | 301° |
| 2026-05-07 09:07 | 37.25294 | 127.40710 | 9310 ft | 243 kts | 296° |
| 2026-05-07 09:07 | 37.26203 | 127.38929 | 9140 ft | 243 kts | 296° |
| 2026-05-07 09:07 | 37.27116 | 127.37145 | 8978 ft | 242 kts | 294° |
| 2026-05-07 09:08 | 37.27710 | 127.35247 | 8805 ft | 234 kts | 277° |
| 2026-05-07 09:08 | 37.27730 | 127.33216 | 8636 ft | 230 kts | 260° |
| 2026-05-07 09:08 | 37.27436 | 127.31269 | 8487 ft | 230 kts | 257° |
| 2026-05-07 09:08 | 37.27120 | 127.29295 | 8329 ft | 230 kts | 258° |
| 2026-05-07 09:09 | 37.26815 | 127.27320 | 8166 ft | 231 kts | 258° |
| 2026-05-07 09:09 | 37.26516 | 127.25336 | 7999 ft | 231 kts | 259° |
| 2026-05-07 09:09 | 37.26205 | 127.23237 | 7933 ft | 251 kts | 259° |
| 2026-05-07 09:09 | 37.25884 | 127.21069 | 7933 ft | 254 kts | 259° |
| 2026-05-07 09:10 | 37.25574 | 127.18884 | 7950 ft | 254 kts | 262° |
| 2026-05-07 09:10 | 37.25705 | 127.16720 | 7933 ft | 257 kts | 287° |
| 2026-05-07 09:10 | 37.26670 | 127.14853 | 7513 ft | 260 kts | 310° |
| 2026-05-07 09:10 | 37.27994 | 127.13298 | 7114 ft | 258 kts | 313° |
| 2026-05-07 09:11 | 37.29282 | 127.11801 | 6924 ft | 246 kts | 313° |
| 2026-05-07 09:11 | 37.30493 | 127.10359 | 6785 ft | 234 kts | 312° |
| 2026-05-07 09:11 | 37.31637 | 127.08986 | 6667 ft | 221 kts | 312° |
| 2026-05-07 09:11 | 37.32724 | 127.07688 | 6554 ft | 210 kts | 314° |
| 2026-05-07 09:12 | 37.33794 | 127.06505 | 6454 ft | 199 kts | 312° |
| 2026-05-07 09:12 | 37.34759 | 127.05317 | 6277 ft | 191 kts | 311° |
| 2026-05-07 09:12 | 37.35682 | 127.04166 | 6005 ft | 188 kts | 311° |
| 2026-05-07 09:12 | 37.36604 | 127.03011 | 5707 ft | 186 kts | 311° |
| 2026-05-07 09:13 | 37.37513 | 127.01868 | 5395 ft | 185 kts | 311° |
| 2026-05-07 09:13 | 37.38427 | 127.00720 | 5094 ft | 185 kts | 311° |
| 2026-05-07 09:13 | 37.39340 | 126.99573 | 4775 ft | 185 kts | 312° |
| 2026-05-07 09:13 | 37.40249 | 126.98429 | 4481 ft | 184 kts | 313° |
| 2026-05-07 09:14 | 37.41153 | 126.97295 | 4189 ft | 183 kts | 314° |
| 2026-05-07 09:14 | 37.42039 | 126.96182 | 3894 ft | 182 kts | 314° |
| 2026-05-07 09:14 | 37.42932 | 126.95058 | 3600 ft | 181 kts | 314° |
| 2026-05-07 09:14 | 37.43818 | 126.93945 | 3273 ft | 178 kts | 314° |
| 2026-05-07 09:15 | 37.44694 | 126.92842 | 2986 ft | 180 kts | 314° |
| 2026-05-07 09:15 | 37.45582 | 126.91726 | 2708 ft | 180 kts | 314° |
| 2026-05-07 09:15 | 37.46444 | 126.90641 | 2481 ft | 167 kts | 314° |
| 2026-05-07 09:15 | 37.47165 | 126.89734 | 2308 ft | 126 kts | 313° |
| 2026-05-07 09:16 | 37.47766 | 126.88977 | 2104 ft | 120 kts | 314° |
| 2026-05-07 09:16 | 37.48347 | 126.88245 | 1917 ft | 117 kts | 313° |
| 2026-05-07 09:16 | 37.48915 | 126.87530 | 1759 ft | 117 kts | 312° |
| 2026-05-07 09:16 | 37.49491 | 126.86803 | 1605 ft | 118 kts | 313° |
| 2026-05-07 09:17 | 37.50071 | 126.86073 | 1438 ft | 118 kts | 313° |
| 2026-05-07 09:17 | 37.50641 | 126.85353 | 1280 ft | 116 kts | 311° |
| 2026-05-07 09:17 | 37.51211 | 126.84635 | 1123 ft | 116 kts | 312° |
| 2026-05-07 09:17 | 37.51781 | 126.83917 | 958 ft | 116 kts | 311° |
| 2026-05-07 09:18 | 37.52353 | 126.83195 | 787 ft | 117 kts | 310° |
| 2026-05-07 09:18 | 37.52927 | 126.82471 | 648 ft | 116 kts | 310° |
| 2026-05-07 09:18 | 37.53499 | 126.81752 | 472 ft | 117 kts | 309° |
| 2026-05-07 09:18 | 37.54076 | 126.81025 | 309 ft | 118 kts | 310° |
| 2026-05-07 09:19 | 37.54644 | 126.80305 | 165 ft | 118 kts | 311° |
| 2026-05-07 09:19 | 37.55201 | 126.79597 | 62 ft | 94 kts | 315° |
| 2026-05-07 09:19 | 37.55520 | 126.79202 | 65 ft | 36 kts | 314° |
| 2026-05-07 09:19 | 37.55650 | 126.79038 | 62 ft | 28 kts | 315° |
| 2026-05-07 09:20 | 37.55801 | 126.78847 | 63 ft | 34 kts | 325° |
| 2026-05-07 09:20 | 37.55866 | 126.78861 | 61 ft | 12 kts | 62° |
| 2026-05-07 09:20 | 37.55949 | 126.78969 | 68 ft | 22 kts | 46° |
| 2026-05-07 09:20 | 37.56035 | 126.79152 | 64 ft | 29 kts | 112° |
| 2026-05-07 09:21 | 37.55953 | 126.79409 | 71 ft | 36 kts | 98° |
| 2026-05-07 09:21 | 37.55937 | 126.79665 | 72 ft | 13 kts | 112° |
| 2026-05-07 09:21 | 37.55915 | 126.79792 | 70 ft | 17 kts | 97° |
| 2026-05-07 09:21 | 37.55894 | 126.79948 | 69 ft | 20 kts | 111° |
| 2026-05-07 09:22 | 37.55830 | 126.80094 | 72 ft | 21 kts | 37° |
| 2026-05-07 09:22 | 37.55885 | 126.80153 | 67 ft | 3 kts | 46° |
| 2026-05-07 09:22 | 37.55889 | 126.80158 | 69 ft | 0 kts | 46° |